LYBE/BEG METAR and TAF weather

Enter ICAO airport designator
Station Type Date Time Source
LYBE METAR 2020/09/27 03:00 UTC NOAA

LYBE 270300Z 32003KT 290V350 9999 FEW017 BKN027 12/11 Q1005 NOSIG


Station Type Date Time Source
LYBE Decoded METAR 2020/09/27 03:00 UTC NOAA

Beograd / Surcin, Serbia and Montenegro (LYBE) 44-49N 020-17E 99M
Sep 26, 2020 - 11:00 PM EDT / 2020.09.27 0300 UTC
Wind: from the NW (320 degrees) at 3 MPH (3 KT) (direction variable):0
Visibility: greater than 7 mile(s):0
Sky conditions: mostly cloudy
Temperature: 53 F (12 C)
Dew Point: 51 F (11 C)
Relative Humidity: 93%
Pressure (altimeter): 29.68 in. Hg (1005 hPa)
ob: LYBE 270300Z 32003KT 290V350 9999 FEW017 BKN027 12/11 Q1005 NOSIG
cycle: 3

Station Type Date Time Source
LYBE TAF 2020/09/26 18:21 UTC NOAA

TAF LYBE 261700Z 2618/2718 34005KT 9999 SCT040 TX19/2713Z TN09/2704Z
TEMPO 2703/2706 3000 BR

Example: see airport list